createdAt,value
2022-09-17T00:00:48.963Z,97182.34
2022-09-17T00:03:16.577Z,97187.44
2022-09-17T00:05:43.911Z,97193.84
2022-09-17T00:08:15.273Z,97185.47
2022-09-17T00:10:44.134Z,97185.69
2022-09-17T00:13:11.873Z,97187.88
2022-09-17T00:15:46.298Z,97187.66
2022-09-17T00:18:15.979Z,97188.94
2022-09-17T00:20:45.758Z,97196.63
2022-09-17T00:23:13.554Z,97195.00
2022-09-17T00:25:44.250Z,97191.00
2022-09-17T00:28:13.795Z,97186.06
2022-09-17T00:30:44.972Z,97185.53
2022-09-17T00:33:14.595Z,97180.97
2022-09-17T00:35:41.929Z,97187.88
2022-09-17T00:38:09.612Z,97184.25
2022-09-17T00:40:37.281Z,97186.66
2022-09-17T00:43:04.800Z,97194.84
2022-09-17T00:45:32.348Z,97189.75
2022-09-17T00:48:02.184Z,97194.16
2022-09-17T00:50:36.643Z,97193.97
2022-09-17T00:53:05.398Z,97194.91
2022-09-17T00:55:37.445Z,97195.44
2022-09-17T00:58:07.169Z,97188.50
2022-09-17T01:00:34.284Z,97199.66
2022-09-17T01:03:01.496Z,97197.13
2022-09-17T01:05:37.779Z,97185.97
2022-09-17T01:08:18.291Z,97190.72
2022-09-17T01:10:51.946Z,97186.13
2022-09-17T01:13:34.533Z,97189.78
2022-09-17T01:16:21.639Z,97184.88
2022-09-17T01:19:22.380Z,97188.91
2022-09-17T01:22:24.778Z,97181.06
2022-09-17T01:25:13.476Z,97181.28
2022-09-17T01:28:03.816Z,97182.72
2022-09-17T01:30:52.166Z,97183.06
2022-09-17T01:33:43.459Z,97186.91
2022-09-17T01:36:13.504Z,97175.41
2022-09-17T01:39:14.551Z,97193.28
2022-09-17T01:41:43.414Z,97190.53
2022-09-17T01:44:11.709Z,97193.47
2022-09-17T01:46:50.149Z,97185.81
2022-09-17T01:49:18.140Z,97190.22
2022-09-17T01:51:47.298Z,97193.84
2022-09-17T01:54:19.973Z,97191.84
2022-09-17T01:57:02.068Z,97184.38
2022-09-17T01:59:37.217Z,97182.72
2022-09-17T02:02:12.105Z,97188.75
2022-09-17T02:04:49.023Z,97186.00
2022-09-17T02:07:22.709Z,97188.72
2022-09-17T02:09:56.477Z,97191.47
2022-09-17T02:12:31.104Z,97186.31
2022-09-17T02:15:01.102Z,97180.31
2022-09-17T02:17:49.589Z,97185.78
2022-09-17T02:20:22.695Z,97182.53
2022-09-17T02:22:56.907Z,97178.16
2022-09-17T02:25:34.053Z,97178.88
2022-09-17T02:28:26.127Z,97183.44
2022-09-17T02:30:53.292Z,97182.88
2022-09-17T02:33:21.033Z,97179.06
2022-09-17T02:35:48.114Z,97181.56
2022-09-17T02:38:22.406Z,97180.69
2022-09-17T02:40:52.149Z,97176.13
2022-09-17T02:43:28.897Z,97175.22
2022-09-17T02:46:17.866Z,97169.75
2022-09-17T02:49:18.471Z,97176.31
2022-09-17T02:52:21.037Z,97176.50
2022-09-17T02:54:57.728Z,97181.00
2022-09-17T02:57:33.695Z,97185.75
2022-09-17T03:00:07.775Z,97183.50
2022-09-17T03:03:06.249Z,97180.97
2022-09-17T03:05:34.634Z,97182.34
2022-09-17T03:08:01.991Z,97173.50
2022-09-17T03:10:30.286Z,97178.19
2022-09-17T03:12:57.340Z,97184.38
2022-09-17T03:15:24.401Z,97178.91
2022-09-17T03:17:53.561Z,97182.13
2022-09-17T03:20:20.991Z,97179.81
2022-09-17T03:22:48.045Z,97180.53
2022-09-17T03:25:17.640Z,97178.50
2022-09-17T03:27:44.726Z,97178.09
2022-09-17T03:30:11.834Z,97178.03
2022-09-17T03:32:38.861Z,97187.06
2022-09-17T03:35:06.015Z,97183.38
2022-09-17T03:37:33.308Z,97189.25
2022-09-17T03:40:00.762Z,97187.06
2022-09-17T03:42:27.917Z,97189.97
2022-09-17T03:44:54.991Z,97196.84
2022-09-17T03:47:22.084Z,97196.66
2022-09-17T03:49:49.192Z,97191.38
2022-09-17T03:52:16.287Z,97198.53
2022-09-17T03:54:43.301Z,97194.16
2022-09-17T03:57:10.350Z,97184.38
2022-09-17T03:59:37.399Z,97195.44
2022-09-17T04:02:04.630Z,97193.38
2022-09-17T04:04:31.764Z,97192.34
2022-09-17T04:06:58.896Z,97193.78
2022-09-17T04:09:26.829Z,97190.84
2022-09-17T04:11:53.922Z,97188.66
2022-09-17T04:14:20.961Z,97192.66
2022-09-17T04:16:48.011Z,97188.47
2022-09-17T04:19:15.114Z,97185.53
2022-09-17T04:21:42.186Z,97187.59
2022-09-17T04:24:09.442Z,97183.78
2022-09-17T04:26:36.520Z,97186.53
2022-09-17T04:29:03.653Z,97183.78
2022-09-17T04:31:30.750Z,97179.78
2022-09-17T04:33:57.900Z,97186.31
2022-09-17T04:36:24.991Z,97187.59
2022-09-17T04:38:52.095Z,97177.59
2022-09-17T04:41:19.469Z,97182.72
2022-09-17T04:43:46.824Z,97181.06
2022-09-17T04:46:14.394Z,97187.38
2022-09-17T04:48:41.483Z,97185.59
2022-09-17T04:51:08.571Z,97187.78
2022-09-17T04:53:35.665Z,97179.59
2022-09-17T04:56:02.709Z,97186.88
2022-09-17T04:58:31.343Z,97184.88
2022-09-17T05:00:58.587Z,97185.59
2022-09-17T05:03:25.814Z,97185.91
2022-09-17T05:05:52.979Z,97186.66
2022-09-17T05:08:20.058Z,97190.09
2022-09-17T05:11:07.460Z,97187.59
2022-09-17T05:13:34.501Z,97189.19
2022-09-17T05:16:01.700Z,97192.25
2022-09-17T05:18:28.810Z,97188.94
2022-09-17T05:20:55.854Z,97190.94
2022-09-17T05:23:22.888Z,97190.41
2022-09-17T05:25:49.929Z,97194.25
2022-09-17T05:28:17.126Z,97186.25
2022-09-17T05:30:44.220Z,97193.72
2022-09-17T05:33:11.238Z,97188.03
2022-09-17T05:35:38.275Z,97195.72
2022-09-17T05:38:06.405Z,97199.38
2022-09-17T05:40:33.859Z,97201.19
2022-09-17T05:43:02.567Z,97185.53
2022-09-17T05:45:30.086Z,97192.78
2022-09-17T05:47:58.225Z,97196.78
2022-09-17T05:50:26.658Z,97196.25
2022-09-17T05:52:54.278Z,97191.31
2022-09-17T05:55:23.177Z,97195.72
2022-09-17T05:57:50.852Z,97199.75
2022-09-17T06:00:18.133Z,97194.31
2022-09-17T06:02:45.232Z,97209.03
2022-09-17T06:05:12.482Z,97205.22
2022-09-17T06:07:39.599Z,97218.16
2022-09-17T06:10:08.377Z,97214.03
2022-09-17T06:12:35.655Z,97214.22
2022-09-17T06:15:04.371Z,97212.75
2022-09-17T06:17:35.379Z,97209.44
2022-09-17T06:20:03.661Z,97213.63
2022-09-17T06:22:31.238Z,97214.75
2022-09-17T06:25:00.957Z,97214.09
2022-09-17T06:27:32.955Z,97215.22
2022-09-17T06:30:00.486Z,97221.63
2022-09-17T06:32:28.778Z,97219.78
2022-09-17T06:34:57.303Z,97224.00
2022-09-17T06:37:32.279Z,97213.47
2022-09-17T06:39:59.771Z,97221.66
2022-09-17T06:42:28.431Z,97210.00
2022-09-17T06:44:55.486Z,97212.38
2022-09-17T06:47:24.781Z,97213.84
2022-09-17T06:49:52.585Z,97213.84
2022-09-17T06:52:19.678Z,97221.19
2022-09-17T06:54:46.725Z,97216.13
2022-09-17T06:57:15.068Z,97211.91
2022-09-17T06:59:42.953Z,97221.97
2022-09-17T07:02:10.098Z,97220.88
2022-09-17T07:04:37.190Z,97219.81
2022-09-17T07:07:05.366Z,97230.22
2022-09-17T07:09:32.461Z,97221.66
2022-09-17T07:11:59.868Z,97228.25
2022-09-17T07:14:26.913Z,97226.44
2022-09-17T07:16:53.968Z,97227.59
2022-09-17T07:19:21.022Z,97229.97
2022-09-17T07:21:49.109Z,97226.91
2022-09-17T07:24:16.206Z,97232.00
2022-09-17T07:26:43.312Z,97233.13
2022-09-17T07:29:10.373Z,97237.53
2022-09-17T07:31:37.440Z,97242.84
2022-09-17T07:34:04.568Z,97247.97
2022-09-17T07:36:31.667Z,97256.03
2022-09-17T07:38:58.689Z,97256.38
2022-09-17T07:41:25.744Z,97258.75
2022-09-17T07:43:54.254Z,97267.34
2022-09-17T07:46:21.924Z,97271.94
2022-09-17T07:48:49.518Z,97280.31
2022-09-17T07:51:24.599Z,97273.97
2022-09-17T07:53:55.890Z,97273.44
2022-09-17T07:56:23.200Z,97271.41
2022-09-17T07:58:50.592Z,97274.34
2022-09-17T08:01:18.540Z,97282.75
2022-09-17T08:03:51.124Z,97293.91
2022-09-17T08:06:21.162Z,97292.09
2022-09-17T08:08:48.451Z,97297.97
2022-09-17T08:11:44.517Z,97297.59
2022-09-17T08:14:11.159Z,97309.50
2022-09-17T08:16:38.557Z,97295.44
2022-09-17T08:19:05.612Z,97300.56
2022-09-17T08:21:32.698Z,97305.56
2022-09-17T08:23:59.967Z,97309.03
2022-09-17T08:26:27.904Z,97303.78
2022-09-17T08:28:56.495Z,97298.13
2022-09-17T08:31:26.465Z,97301.63
2022-09-17T08:33:53.616Z,97306.22
2022-09-17T08:36:22.680Z,97300.03
2022-09-17T08:38:53.146Z,97310.63
2022-09-17T08:41:29.260Z,97313.34
2022-09-17T08:44:14.691Z,97322.50
2022-09-17T08:46:51.004Z,97325.59
2022-09-17T08:49:41.745Z,97326.31
2022-09-17T08:52:30.578Z,97325.78
2022-09-17T08:55:11.311Z,97320.31
2022-09-17T08:57:53.664Z,97324.34
2022-09-17T09:00:22.573Z,97326.19
2022-09-17T09:03:17.316Z,97323.06
2022-09-17T09:05:46.727Z,97324.91
2022-09-17T09:08:28.855Z,97330.38
2022-09-17T09:10:58.707Z,97326.00
2022-09-17T09:13:30.821Z,97327.81
2022-09-17T09:16:08.005Z,97321.97
2022-09-17T09:18:37.529Z,97311.72
2022-09-17T09:21:14.597Z,97308.94
2022-09-17T09:23:55.426Z,97305.81
2022-09-17T09:26:31.834Z,97305.81
2022-09-17T09:29:27.021Z,97317.56
2022-09-17T09:32:28.365Z,97307.31
2022-09-17T09:34:56.542Z,97308.78
2022-09-17T09:37:31.264Z,97315.56
2022-09-17T09:40:24.358Z,97309.69
2022-09-17T09:42:53.881Z,97305.16
2022-09-17T09:45:53.932Z,97316.13
2022-09-17T09:48:54.867Z,97323.81
2022-09-17T09:51:38.382Z,97342.47
2022-09-17T09:54:15.394Z,97348.84
2022-09-17T09:56:46.806Z,97348.13
2022-09-17T09:59:13.893Z,97339.47
2022-09-17T10:01:45.191Z,97331.22
2022-09-17T10:04:21.925Z,97342.25
2022-09-17T10:07:02.931Z,97349.09
2022-09-17T10:09:32.431Z,97343.47
2022-09-17T10:12:11.098Z,97352.50
2022-09-17T10:14:41.510Z,97346.00
2022-09-17T10:17:17.963Z,97333.84
2022-09-17T10:19:45.827Z,97344.66
2022-09-17T10:22:21.967Z,97323.78
2022-09-17T10:24:49.123Z,97323.44
2022-09-17T10:27:18.698Z,97338.44
2022-09-17T10:29:47.650Z,97340.97
2022-09-17T10:32:19.566Z,97347.53
2022-09-17T10:35:04.261Z,97347.72
2022-09-17T10:37:34.433Z,97361.75
2022-09-17T10:40:01.685Z,97363.94
2022-09-17T10:42:28.724Z,97356.25
2022-09-17T10:44:57.837Z,97358.44
2022-09-17T10:47:35.455Z,97348.25
2022-09-17T10:52:38.342Z,97338.41
2022-09-17T10:55:40.875Z,97327.47
2022-09-17T10:58:07.844Z,97342.25
2022-09-17T11:00:44.292Z,97337.34
2022-09-17T11:03:36.722Z,97338.81
2022-09-17T11:06:18.468Z,97340.25
2022-09-17T11:09:07.378Z,97329.63
2022-09-17T11:11:52.252Z,97339.34
2022-09-17T11:14:31.216Z,97326.38
2022-09-17T11:17:08.293Z,97323.25
2022-09-17T11:19:48.539Z,97327.84
2022-09-17T11:22:31.362Z,97326.38
2022-09-17T11:25:28.078Z,97333.50
2022-09-17T11:28:01.103Z,97314.31
2022-09-17T11:30:40.292Z,97320.16
2022-09-17T11:33:39.467Z,97325.81
2022-09-17T11:36:22.693Z,97322.88
2022-09-17T11:38:56.073Z,97329.28
2022-09-17T11:41:26.991Z,97329.63
2022-09-17T11:44:26.505Z,97327.22
2022-09-17T11:47:09.380Z,97325.91
2022-09-17T11:49:44.839Z,97340.38
2022-09-17T11:52:21.904Z,97328.84
2022-09-17T11:55:19.546Z,97335.47
2022-09-17T11:57:48.143Z,97321.91
2022-09-17T12:00:17.997Z,97316.41
2022-09-17T12:02:53.597Z,97322.44
2022-09-17T12:05:24.732Z,97309.03
2022-09-17T12:07:57.726Z,97311.34
2022-09-17T12:10:35.555Z,97312.97
2022-09-17T12:13:33.395Z,97309.38
2022-09-17T12:16:21.366Z,97309.41
2022-09-17T12:18:54.006Z,97311.78
2022-09-17T12:21:25.890Z,97313.47
2022-09-17T12:24:01.962Z,97317.13
2022-09-17T12:26:52.833Z,97346.94
2022-09-17T12:29:30.458Z,97335.50
2022-09-17T12:32:24.115Z,97323.78
2022-09-17T12:35:06.519Z,97307.91
2022-09-17T12:37:54.282Z,97298.75
2022-09-17T12:40:42.736Z,97303.81
2022-09-17T12:43:17.629Z,97302.56
2022-09-17T12:46:18.173Z,97305.47
2022-09-17T12:48:52.193Z,97297.59
2022-09-17T12:52:06.707Z,97304.38
2022-09-17T12:54:48.771Z,97314.59
2022-09-17T12:57:44.902Z,97299.41
2022-09-17T13:00:14.341Z,97298.84
2022-09-17T13:03:15.894Z,97296.59
2022-09-17T13:05:56.952Z,97298.94
2022-09-17T13:09:00.660Z,97295.44
2022-09-17T13:12:05.071Z,97286.16
2022-09-17T13:15:11.183Z,97284.50
2022-09-17T13:18:20.013Z,97279.97
2022-09-17T13:20:55.541Z,97279.84
2022-09-17T13:23:31.396Z,97272.56
2022-09-17T13:26:00.962Z,97268.72
2022-09-17T13:28:37.728Z,97283.00
2022-09-17T13:31:05.296Z,97278.66
2022-09-17T13:33:58.461Z,97272.81
2022-09-17T13:36:45.021Z,97265.31
2022-09-17T13:39:32.091Z,97260.19
2022-09-17T13:42:04.985Z,97253.41
2022-09-17T13:44:35.111Z,97257.06
2022-09-17T13:47:24.888Z,97256.34
2022-09-17T13:50:05.202Z,97251.38
2022-09-17T13:52:38.645Z,97248.25
2022-09-17T13:55:06.309Z,97250.28
2022-09-17T13:57:35.388Z,97256.09
2022-09-17T14:00:02.589Z,97258.13
2022-09-17T14:02:35.170Z,97253.75
2022-09-17T14:05:25.651Z,97264.56
2022-09-17T14:08:11.932Z,97273.13
2022-09-17T14:10:43.267Z,97274.06
2022-09-17T14:13:26.431Z,97283.22
2022-09-17T14:16:00.784Z,97292.00
2022-09-17T14:18:27.757Z,97292.00
2022-09-17T14:21:09.770Z,97301.50
2022-09-17T14:23:44.525Z,97296.56
2022-09-17T14:26:26.129Z,97293.44
2022-09-17T14:29:10.193Z,97296.91
2022-09-17T14:31:37.597Z,97295.25
2022-09-17T14:34:05.990Z,97291.97
2022-09-17T14:36:35.829Z,97285.22
2022-09-17T14:39:05.226Z,97286.31
2022-09-17T14:41:40.862Z,97285.72
2022-09-17T14:44:14.920Z,97272.03
2022-09-17T14:46:49.832Z,97272.41
2022-09-17T14:49:32.639Z,97268.59
2022-09-17T14:52:01.931Z,97268.22
2022-09-17T14:54:35.756Z,97275.38
2022-09-17T14:57:20.689Z,97264.22
2022-09-17T14:59:52.696Z,97267.50
2022-09-17T15:02:45.702Z,97264.59
2022-09-17T15:05:28.196Z,97262.19
2022-09-17T15:08:11.252Z,97247.41
2022-09-17T15:10:49.626Z,97257.97
2022-09-17T15:13:41.885Z,97253.41
2022-09-17T15:16:38.074Z,97257.41
2022-09-17T15:19:05.131Z,97260.72
2022-09-17T15:21:39.812Z,97265.63
2022-09-17T15:24:12.782Z,97261.78
2022-09-17T15:26:41.823Z,97267.78
2022-09-17T15:29:13.706Z,97258.63
2022-09-17T15:31:41.383Z,97258.56
2022-09-17T15:34:11.409Z,97270.41
2022-09-17T15:36:38.527Z,97262.69
2022-09-17T15:39:31.731Z,97263.03
2022-09-17T15:41:58.849Z,97262.91
2022-09-17T15:44:30.446Z,97255.06
2022-09-17T15:47:36.851Z,97247.81
2022-09-17T15:50:14.639Z,97259.38
2022-09-17T15:52:41.927Z,97259.56
2022-09-17T15:55:29.289Z,97259.41
2022-09-17T15:57:58.741Z,97256.13
2022-09-17T16:00:26.192Z,97265.63
2022-09-17T16:02:54.121Z,97259.59
2022-09-17T16:05:24.292Z,97265.47
2022-09-17T16:07:52.119Z,97268.03
2022-09-17T16:10:19.936Z,97265.81
2022-09-17T16:12:49.692Z,97271.66
2022-09-17T16:15:17.558Z,97271.69
2022-09-17T16:17:48.314Z,97275.34
2022-09-17T16:20:26.132Z,97270.78
2022-09-17T16:22:53.399Z,97273.72
2022-09-17T16:25:25.212Z,97277.91
2022-09-17T16:27:57.061Z,97280.66
2022-09-17T16:30:24.494Z,97293.47
2022-09-17T16:32:51.951Z,97295.09
2022-09-17T16:35:20.814Z,97295.47
2022-09-17T16:37:49.444Z,97296.91
2022-09-17T16:40:16.872Z,97302.03
2022-09-17T16:42:43.977Z,97295.28
2022-09-17T16:45:11.343Z,97300.56
2022-09-17T16:47:39.971Z,97304.56
2022-09-17T16:50:10.249Z,97300.34
2022-09-17T16:52:37.792Z,97309.81
2022-09-17T16:55:05.853Z,97309.44
2022-09-17T16:57:33.341Z,97318.91
2022-09-17T17:00:01.018Z,97316.88
2022-09-17T17:02:28.200Z,97314.09
2022-09-17T17:04:55.374Z,97318.47
2022-09-17T17:07:22.460Z,97308.22
2022-09-17T17:09:50.199Z,97307.66
2022-09-17T17:12:19.247Z,97307.41
2022-09-17T17:14:49.972Z,97307.00
2022-09-17T17:17:17.811Z,97314.25
2022-09-17T17:19:45.965Z,97307.59
2022-09-17T17:22:14.155Z,97310.09
2022-09-17T17:24:41.438Z,97307.66
2022-09-17T17:27:11.483Z,97300.66
2022-09-17T17:29:38.575Z,97304.81
2022-09-17T17:32:05.720Z,97317.22
2022-09-17T17:34:32.797Z,97310.41
2022-09-17T17:36:59.960Z,97308.16
2022-09-17T17:39:27.004Z,97314.34
2022-09-17T17:41:56.845Z,97305.44
2022-09-17T17:44:23.931Z,97307.44
2022-09-17T17:46:51.030Z,97312.28
2022-09-17T17:49:18.109Z,97312.63
2022-09-17T17:51:45.362Z,97312.63
2022-09-17T17:54:12.493Z,97320.66
2022-09-17T17:56:39.846Z,97316.44
2022-09-17T17:59:07.266Z,97319.19
2022-09-17T18:01:35.119Z,97317.38
2022-09-17T18:04:05.238Z,97321.03
2022-09-17T18:06:32.631Z,97323.75
2022-09-17T18:09:00.398Z,97331.22
2022-09-17T18:11:28.690Z,97331.56
2022-09-17T18:13:56.978Z,97329.69
2022-09-17T18:16:24.503Z,97335.50
2022-09-17T18:18:51.793Z,97328.69
2022-09-17T18:21:21.298Z,97323.97
2022-09-17T18:23:49.386Z,97328.50
2022-09-17T18:26:25.977Z,97325.56
2022-09-17T18:28:53.511Z,97323.03
2022-09-17T18:31:31.367Z,97329.44
2022-09-17T18:34:01.305Z,97332.56
2022-09-17T18:36:30.015Z,97322.56
2022-09-17T18:39:11.016Z,97329.50
2022-09-17T18:41:44.038Z,97325.31
2022-09-17T18:44:11.543Z,97336.97
2022-09-17T18:46:39.105Z,97342.09
2022-09-17T18:49:06.265Z,97329.38
2022-09-17T18:51:33.301Z,97333.22
2022-09-17T18:54:01.770Z,97335.97
2022-09-17T18:56:31.062Z,97334.31
2022-09-17T18:59:00.795Z,97341.44
2022-09-17T19:01:30.887Z,97356.25
2022-09-17T19:03:58.872Z,97351.50
2022-09-17T19:06:26.786Z,97367.75
2022-09-17T19:08:56.098Z,97373.09
2022-09-17T19:11:23.227Z,97371.28
2022-09-17T19:13:50.452Z,97373.69
2022-09-17T19:16:17.645Z,97369.34
2022-09-17T19:18:44.879Z,97373.56
2022-09-17T19:21:14.352Z,97382.50
2022-09-17T19:23:42.406Z,97379.38
2022-09-17T19:26:11.311Z,97374.75
2022-09-17T19:28:38.448Z,97365.97
2022-09-17T19:31:06.306Z,97377.88
2022-09-17T19:33:33.550Z,97366.88
2022-09-17T19:36:01.853Z,97359.56
2022-09-17T19:38:29.441Z,97356.22
2022-09-17T19:41:02.889Z,97362.53
2022-09-17T19:43:30.569Z,97357.59
2022-09-17T19:46:15.372Z,97365.81
2022-09-17T19:48:46.411Z,97373.91
2022-09-17T19:51:14.148Z,97387.56
2022-09-17T19:53:41.406Z,97383.38
2022-09-17T19:56:17.742Z,97368.13
2022-09-17T19:58:45.248Z,97352.72
2022-09-17T20:01:13.062Z,97353.06
2022-09-17T20:03:41.462Z,97367.56
2022-09-17T20:06:10.959Z,97371.53
2022-09-17T20:08:47.399Z,97373.34
2022-09-17T20:11:15.631Z,97370.09
2022-09-17T20:13:42.845Z,97373.06
2022-09-17T20:16:12.620Z,97369.91
2022-09-17T20:18:39.966Z,97373.41
2022-09-17T20:21:12.321Z,97370.44
2022-09-17T20:23:39.702Z,97373.41
2022-09-17T20:26:07.117Z,97368.69
2022-09-17T20:28:34.607Z,97368.25
2022-09-17T20:31:03.344Z,97369.53
2022-09-17T20:33:30.631Z,97368.59
2022-09-17T20:35:59.969Z,97367.31
2022-09-17T20:41:15.053Z,97361.97
2022-09-17T20:43:47.508Z,97364.09
2022-09-17T20:46:15.765Z,97358.84
2022-09-17T20:48:43.187Z,97359.25
2022-09-17T20:51:19.060Z,97346.13
2022-09-17T20:53:46.274Z,97346.22
2022-09-17T20:56:18.670Z,97342.22
2022-09-17T20:58:53.367Z,97342.66
2022-09-17T21:01:32.169Z,97321.88
2022-09-17T21:04:00.765Z,97320.09
2022-09-17T21:06:33.181Z,97321.69
2022-09-17T21:09:00.264Z,97329.44
2022-09-17T21:11:28.614Z,97315.91
2022-09-17T21:13:55.707Z,97307.81
2022-09-17T21:16:22.864Z,97304.16
2022-09-17T21:18:55.802Z,97299.44
2022-09-17T21:21:22.948Z,97307.09
2022-09-17T21:23:50.737Z,97309.09
2022-09-17T21:26:20.179Z,97305.09
2022-09-17T21:28:49.255Z,97306.38
2022-09-17T21:31:19.462Z,97305.22
2022-09-17T21:33:47.914Z,97303.75
2022-09-17T21:36:17.399Z,97303.22
2022-09-17T21:38:44.654Z,97303.00
2022-09-17T21:41:13.960Z,97318.13
2022-09-17T21:43:41.705Z,97314.13
2022-09-17T21:46:14.062Z,97310.69
2022-09-17T21:48:55.857Z,97308.47
2022-09-17T21:51:26.080Z,97312.78
2022-09-17T21:53:55.123Z,97310.78
2022-09-17T21:56:22.206Z,97307.94
2022-09-17T21:58:54.612Z,97301.75
2022-09-17T22:01:24.225Z,97313.38
2022-09-17T22:03:51.566Z,97308.16
2022-09-17T22:06:21.702Z,97302.41
2022-09-17T22:08:49.837Z,97307.31
2022-09-17T22:11:19.280Z,97309.31
2022-09-17T22:14:09.228Z,97311.31
2022-09-17T22:16:38.844Z,97316.44
2022-09-17T22:19:06.827Z,97320.09
2022-09-17T22:21:36.647Z,97321.16
2022-09-17T22:24:05.331Z,97325.97
2022-09-17T22:26:37.521Z,97329.00
2022-09-17T22:29:16.230Z,97326.59
2022-09-17T22:31:43.668Z,97322.72
2022-09-17T22:34:13.190Z,97329.94
2022-09-17T22:36:40.300Z,97333.19
2022-09-17T22:39:07.785Z,97329.72
2022-09-17T22:41:36.700Z,97321.88
2022-09-17T22:44:07.734Z,97320.41
2022-09-17T22:46:39.138Z,97314.22
2022-09-17T22:49:07.189Z,97307.81
2022-09-17T22:51:34.225Z,97303.09
2022-09-17T22:54:01.386Z,97301.84
2022-09-17T22:56:29.327Z,97306.56
2022-09-17T22:58:57.681Z,97309.59
2022-09-17T23:01:30.331Z,97313.78
2022-09-17T23:03:58.488Z,97316.72
2022-09-17T23:06:28.619Z,97305.81
2022-09-17T23:08:56.014Z,97317.25
2022-09-17T23:11:36.591Z,97304.34
2022-09-17T23:14:06.520Z,97302.06
2022-09-17T23:16:39.813Z,97298.16
2022-09-17T23:19:06.992Z,97291.03
2022-09-17T23:21:34.113Z,97284.66
2022-09-17T23:24:01.464Z,97297.31
2022-09-17T23:26:28.572Z,97285.69
2022-09-17T23:28:55.869Z,97296.56
2022-09-17T23:31:25.844Z,97286.72
2022-09-17T23:33:53.954Z,97288.00
2022-09-17T23:36:23.871Z,97290.72
2022-09-17T23:38:51.358Z,97295.13
2022-09-17T23:41:24.045Z,97293.31
2022-09-17T23:43:53.490Z,97284.41
2022-09-17T23:46:21.841Z,97292.38
2022-09-17T23:48:49.338Z,97287.66
2022-09-17T23:51:16.824Z,97293.84
2022-09-17T23:53:44.010Z,97301.72
2022-09-17T23:56:19.656Z,97283.41
2022-09-17T23:58:48.351Z,97303.41
